sensor_id;sensor_type;location;lat;lon;timestamp;P1;P2;P0
37775;PMS5003;23614;33.774;130.514;2022-09-21T00:02:11;5;3;
37775;PMS5003;23614;33.774;130.514;2022-09-21T00:04:36;2;2;
37775;PMS5003;23614;33.774;130.514;2022-09-21T00:07:02;3;3;
37775;PMS5003;23614;33.774;130.514;2022-09-21T00:09:28;4;2;
37775;PMS5003;23614;33.774;130.514;2022-09-21T00:11:54;4;3;
37775;PMS5003;23614;33.774;130.514;2022-09-21T00:14:21;2;2;
37775;PMS5003;23614;33.774;130.514;2022-09-21T00:16:46;4;3;
37775;PMS5003;23614;33.774;130.514;2022-09-21T00:19:12;3;2;
37775;PMS5003;23614;33.774;130.514;2022-09-21T00:21:38;2;2;
37775;PMS5003;23614;33.774;130.514;2022-09-21T00:24:05;3;3;
37775;PMS5003;23614;33.774;130.514;2022-09-21T00:26:30;2;1;
37775;PMS5003;23614;33.774;130.514;2022-09-21T00:28:57;2;2;
37775;PMS5003;23614;33.774;130.514;2022-09-21T00:31:22;4;2;
37775;PMS5003;23614;33.774;130.514;2022-09-21T00:33:49;2;2;
37775;PMS5003;23614;33.774;130.514;2022-09-21T00:36:15;4;2;
37775;PMS5003;23614;33.774;130.514;2022-09-21T00:38:40;3;2;
37775;PMS5003;23614;33.774;130.514;2022-09-21T00:41:07;2;1;
37775;PMS5003;23614;33.774;130.514;2022-09-21T00:43:33;3;3;
37775;PMS5003;23614;33.774;130.514;2022-09-21T00:46:00;3;2;
37775;PMS5003;23614;33.774;130.514;2022-09-21T00:48:24;3;2;
37775;PMS5003;23614;33.774;130.514;2022-09-21T00:50:51;3;3;
37775;PMS5003;23614;33.774;130.514;2022-09-21T00:53:16;2;2;
37775;PMS5003;23614;33.774;130.514;2022-09-21T00:55:44;6;2;
37775;PMS5003;23614;33.774;130.514;2022-09-21T00:58:09;5;5;
37775;PMS5003;23614;33.774;130.514;2022-09-21T01:00:40;3;2;
37775;PMS5003;23614;33.774;130.514;2022-09-21T01:03:00;3;3;
37775;PMS5003;23614;33.774;130.514;2022-09-21T01:05:26;3;2;
37775;PMS5003;23614;33.774;130.514;2022-09-21T01:07:52;3;2;
37775;PMS5003;23614;33.774;130.514;2022-09-21T01:10:18;2;2;
37775;PMS5003;23614;33.774;130.514;2022-09-21T01:12:49;3;2;
37775;PMS5003;23614;33.774;130.514;2022-09-21T01:15:28;2;2;
37775;PMS5003;23614;33.774;130.514;2022-09-21T01:17:39;3;2;
37775;PMS5003;23614;33.774;130.514;2022-09-21T01:20:22;2;2;
37775;PMS5003;23614;33.774;130.514;2022-09-21T01:22:31;1;0;
37775;PMS5003;23614;33.774;130.514;2022-09-21T01:24:58;2;1;
37775;PMS5003;23614;33.774;130.514;2022-09-21T01:27:33;2;2;
37775;PMS5003;23614;33.774;130.514;2022-09-21T01:29:48;2;1;
37775;PMS5003;23614;33.774;130.514;2022-09-21T01:32:13;1;1;
37775;PMS5003;23614;33.774;130.514;2022-09-21T01:34:40;2;1;
37775;PMS5003;23614;33.774;130.514;2022-09-21T01:37:06;4;2;
37775;PMS5003;23614;33.774;130.514;2022-09-21T01:39:30;2;2;
37775;PMS5003;23614;33.774;130.514;2022-09-21T01:41:56;2;2;
37775;PMS5003;23614;33.774;130.514;2022-09-21T01:44:33;4;2;
37775;PMS5003;23614;33.774;130.514;2022-09-21T01:47:04;4;2;
37775;PMS5003;23614;33.774;130.514;2022-09-21T01:49:15;2;1;
37775;PMS5003;23614;33.774;130.514;2022-09-21T01:51:43;2;1;
37775;PMS5003;23614;33.774;130.514;2022-09-21T01:54:07;1;1;
37775;PMS5003;23614;33.774;130.514;2022-09-21T01:56:34;2;1;
37775;PMS5003;23614;33.774;130.514;2022-09-21T01:59:00;4;2;
37775;PMS5003;23614;33.774;130.514;2022-09-21T02:01:24;1;1;
37775;PMS5003;23614;33.774;130.514;2022-09-21T02:03:52;2;1;
37775;PMS5003;23614;33.774;130.514;2022-09-21T02:06:16;0;0;
37775;PMS5003;23614;33.774;130.514;2022-09-21T02:08:42;1;1;
37775;PMS5003;23614;33.774;130.514;2022-09-21T02:11:08;3;3;
37775;PMS5003;23614;33.774;130.514;2022-09-21T02:13:35;3;2;
37775;PMS5003;23614;33.774;130.514;2022-09-21T02:16:04;2;0;
37775;PMS5003;23614;33.774;130.514;2022-09-21T02:19:24;2;2;
37775;PMS5003;23614;33.774;130.514;2022-09-21T02:20:54;4;1;
37775;PMS5003;23614;33.774;130.514;2022-09-21T02:23:19;3;2;
37775;PMS5003;23614;33.774;130.514;2022-09-21T02:25:47;1;1;
37775;PMS5003;23614;33.774;130.514;2022-09-21T02:28:12;4;2;
37775;PMS5003;23614;33.774;130.514;2022-09-21T02:30:36;2;2;
37775;PMS5003;23614;33.774;130.514;2022-09-21T02:33:04;2;2;
37775;PMS5003;23614;33.774;130.514;2022-09-21T02:35:30;2;1;
37775;PMS5003;23614;33.774;130.514;2022-09-21T02:37:56;2;2;
37775;PMS5003;23614;33.774;130.514;2022-09-21T02:40:21;2;1;
37775;PMS5003;23614;33.774;130.514;2022-09-21T02:42:47;1;1;
37775;PMS5003;23614;33.774;130.514;2022-09-21T02:45:15;3;0;
37775;PMS5003;23614;33.774;130.514;2022-09-21T02:47:40;1;1;
37775;PMS5003;23614;33.774;130.514;2022-09-21T02:50:06;9;3;
37775;PMS5003;23614;33.774;130.514;2022-09-21T02:52:30;3;2;
37775;PMS5003;23614;33.774;130.514;2022-09-21T02:56:01;3;2;
37775;PMS5003;23614;33.774;130.514;2022-09-21T02:57:22;5;2;
37775;PMS5003;23614;33.774;130.514;2022-09-21T02:59:48;2;2;
37775;PMS5003;23614;33.774;130.514;2022-09-21T03:02:14;2;2;
37775;PMS5003;23614;33.774;130.514;2022-09-21T03:05:46;1;1;
37775;PMS5003;23614;33.774;130.514;2022-09-21T03:07:06;4;2;
37775;PMS5003;23614;33.774;130.514;2022-09-21T03:09:32;2;1;
37775;PMS5003;23614;33.774;130.514;2022-09-21T03:11:58;3;2;
37775;PMS5003;23614;33.774;130.514;2022-09-21T03:14:24;4;2;
37775;PMS5003;23614;33.774;130.514;2022-09-21T03:16:51;1;1;
37775;PMS5003;23614;33.774;130.514;2022-09-21T03:19:16;4;2;
37775;PMS5003;23614;33.774;130.514;2022-09-21T03:21:42;3;2;
37775;PMS5003;23614;33.774;130.514;2022-09-21T03:24:08;1;1;
37775;PMS5003;23614;33.774;130.514;2022-09-21T03:26:34;2;1;
37775;PMS5003;23614;33.774;130.514;2022-09-21T03:29:00;0;0;
37775;PMS5003;23614;33.774;130.514;2022-09-21T03:31:27;1;1;
37775;PMS5003;23614;33.774;130.514;2022-09-21T03:33:52;4;2;
37775;PMS5003;23614;33.774;130.514;2022-09-21T03:36:18;3;1;
37775;PMS5003;23614;33.774;130.514;2022-09-21T03:38:44;2;2;
37775;PMS5003;23614;33.774;130.514;2022-09-21T03:41:10;6;3;
37775;PMS5003;23614;33.774;130.514;2022-09-21T03:43:36;1;1;
37775;PMS5003;23614;33.774;130.514;2022-09-21T03:46:03;1;1;
37775;PMS5003;23614;33.774;130.514;2022-09-21T03:49:00;2;2;
37775;PMS5003;23614;33.774;130.514;2022-09-21T03:51:28;2;1;
37775;PMS5003;23614;33.774;130.514;2022-09-21T03:53:20;2;1;
37775;PMS5003;23614;33.774;130.514;2022-09-21T03:55:46;4;2;
37775;PMS5003;23614;33.774;130.514;2022-09-21T03:58:12;2;2;
37775;PMS5003;23614;33.774;130.514;2022-09-21T04:00:38;2;1;
37775;PMS5003;23614;33.774;130.514;2022-09-21T04:03:04;3;2;
37775;PMS5003;23614;33.774;130.514;2022-09-21T04:05:30;3;2;
37775;PMS5003;23614;33.774;130.514;2022-09-21T04:07:57;1;0;
37775;PMS5003;23614;33.774;130.514;2022-09-21T04:10:23;1;0;
37775;PMS5003;23614;33.774;130.514;2022-09-21T04:12:48;4;2;
37775;PMS5003;23614;33.774;130.514;2022-09-21T04:15:15;1;1;
37775;PMS5003;23614;33.774;130.514;2022-09-21T04:17:41;1;1;
37775;PMS5003;23614;33.774;130.514;2022-09-21T04:20:07;4;2;
37775;PMS5003;23614;33.774;130.514;2022-09-21T04:22:33;3;2;
37775;PMS5003;23614;33.774;130.514;2022-09-21T04:24:59;2;1;
37775;PMS5003;23614;33.774;130.514;2022-09-21T04:28:29;2;2;
37775;PMS5003;23614;33.774;130.514;2022-09-21T04:29:50;2;2;
37775;PMS5003;23614;33.774;130.514;2022-09-21T04:32:17;3;3;
37775;PMS5003;23614;33.774;130.514;2022-09-21T04:34:42;3;2;
37775;PMS5003;23614;33.774;130.514;2022-09-21T04:37:10;2;2;
37775;PMS5003;23614;33.774;130.514;2022-09-21T04:39:34;1;1;
37775;PMS5003;23614;33.774;130.514;2022-09-21T04:42:05;3;2;
37775;PMS5003;23614;33.774;130.514;2022-09-21T04:44:26;1;1;
37775;PMS5003;23614;33.774;130.514;2022-09-21T04:46:56;2;2;
37775;PMS5003;23614;33.774;130.514;2022-09-21T04:49:18;3;2;
37775;PMS5003;23614;33.774;130.514;2022-09-21T04:51:44;2;0;
37775;PMS5003;23614;33.774;130.514;2022-09-21T04:54:10;3;2;
37775;PMS5003;23614;33.774;130.514;2022-09-21T04:56:36;2;2;
37775;PMS5003;23614;33.774;130.514;2022-09-21T04:59:02;3;3;
37775;PMS5003;23614;33.774;130.514;2022-09-21T05:01:28;3;3;
37775;PMS5003;23614;33.774;130.514;2022-09-21T05:03:55;2;2;
37775;PMS5003;23614;33.774;130.514;2022-09-21T05:06:20;2;2;
37775;PMS5003;23614;33.774;130.514;2022-09-21T05:08:46;0;0;
37775;PMS5003;23614;33.774;130.514;2022-09-21T05:11:13;3;2;
37775;PMS5003;23614;33.774;130.514;2022-09-21T05:13:38;2;2;
37775;PMS5003;23614;33.774;130.514;2022-09-21T05:16:04;5;4;
37775;PMS5003;23614;33.774;130.514;2022-09-21T05:18:30;1;1;
37775;PMS5003;23614;33.774;130.514;2022-09-21T05:20:56;4;3;
37775;PMS5003;23614;33.774;130.514;2022-09-21T05:23:23;4;2;
37775;PMS5003;23614;33.774;130.514;2022-09-21T05:25:48;3;2;
37775;PMS5003;23614;33.774;130.514;2022-09-21T05:28:14;3;3;
37775;PMS5003;23614;33.774;130.514;2022-09-21T05:30:40;4;3;
37775;PMS5003;23614;33.774;130.514;2022-09-21T05:33:07;3;3;
37775;PMS5003;23614;33.774;130.514;2022-09-21T05:35:34;4;3;
37775;PMS5003;23614;33.774;130.514;2022-09-21T05:38:00;5;3;
37775;PMS5003;23614;33.774;130.514;2022-09-21T05:40:32;5;3;
37775;PMS5003;23614;33.774;130.514;2022-09-21T05:43:11;4;4;
37775;PMS5003;23614;33.774;130.514;2022-09-21T05:45:17;5;3;
37775;PMS5003;23614;33.774;130.514;2022-09-21T05:47:46;4;3;
37775;PMS5003;23614;33.774;130.514;2022-09-21T05:50:14;6;5;
37775;PMS5003;23614;33.774;130.514;2022-09-21T05:52:37;4;3;
37775;PMS5003;23614;33.774;130.514;2022-09-21T05:55:02;3;3;
37775;PMS5003;23614;33.774;130.514;2022-09-21T05:57:29;5;3;
37775;PMS5003;23614;33.774;130.514;2022-09-21T05:59:55;4;4;
37775;PMS5003;23614;33.774;130.514;2022-09-21T06:02:21;5;4;
37775;PMS5003;23614;33.774;130.514;2022-09-21T06:04:45;6;3;
37775;PMS5003;23614;33.774;130.514;2022-09-21T06:07:10;3;3;
37775;PMS5003;23614;33.774;130.514;2022-09-21T06:09:37;4;3;
37775;PMS5003;23614;33.774;130.514;2022-09-21T06:12:02;3;3;
37775;PMS5003;23614;33.774;130.514;2022-09-21T06:14:28;8;6;
37775;PMS5003;23614;33.774;130.514;2022-09-21T06:16:54;6;4;
37775;PMS5003;23614;33.774;130.514;2022-09-21T06:19:20;4;3;
37775;PMS5003;23614;33.774;130.514;2022-09-21T06:21:46;7;4;
37775;PMS5003;23614;33.774;130.514;2022-09-21T06:24:13;5;4;
37775;PMS5003;23614;33.774;130.514;2022-09-21T06:26:38;6;5;
37775;PMS5003;23614;33.774;130.514;2022-09-21T06:29:11;4;3;
37775;PMS5003;23614;33.774;130.514;2022-09-21T06:31:31;8;5;
37775;PMS5003;23614;33.774;130.514;2022-09-21T06:33:56;3;3;
37775;PMS5003;23614;33.774;130.514;2022-09-21T06:36:23;9;4;
37775;PMS5003;23614;33.774;130.514;2022-09-21T06:38:48;5;5;
37775;PMS5003;23614;33.774;130.514;2022-09-21T06:41:14;4;4;
37775;PMS5003;23614;33.774;130.514;2022-09-21T06:43:40;4;4;
37775;PMS5003;23614;33.774;130.514;2022-09-21T06:46:06;7;5;
37775;PMS5003;23614;33.774;130.514;2022-09-21T06:48:34;4;4;
37775;PMS5003;23614;33.774;130.514;2022-09-21T06:52:44;4;4;
37775;PMS5003;23614;33.774;130.514;2022-09-21T06:54:29;5;4;
37775;PMS5003;23614;33.774;130.514;2022-09-21T06:56:23;3;3;
37775;PMS5003;23614;33.774;130.514;2022-09-21T06:58:48;4;4;
37775;PMS5003;23614;33.774;130.514;2022-09-21T07:00:42;6;5;
37775;PMS5003;23614;33.774;130.514;2022-09-21T07:03:09;4;4;
37775;PMS5003;23614;33.774;130.514;2022-09-21T07:05:34;5;5;
37775;PMS5003;23614;33.774;130.514;2022-09-21T07:08:00;6;5;
37775;PMS5003;23614;33.774;130.514;2022-09-21T07:10:26;5;4;
37775;PMS5003;23614;33.774;130.514;2022-09-21T07:12:52;7;6;
37775;PMS5003;23614;33.774;130.514;2022-09-21T07:15:18;4;4;
37775;PMS5003;23614;33.774;130.514;2022-09-21T07:17:44;5;5;
37775;PMS5003;23614;33.774;130.514;2022-09-21T07:20:10;6;5;
37775;PMS5003;23614;33.774;130.514;2022-09-21T07:22:36;4;4;
37775;PMS5003;23614;33.774;130.514;2022-09-21T07:25:02;5;5;
37775;PMS5003;23614;33.774;130.514;2022-09-21T07:27:29;3;2;
37775;PMS5003;23614;33.774;130.514;2022-09-21T07:29:54;5;4;
37775;PMS5003;23614;33.774;130.514;2022-09-21T07:32:20;7;4;
37775;PMS5003;23614;33.774;130.514;2022-09-21T07:34:47;3;3;
37775;PMS5003;23614;33.774;130.514;2022-09-21T07:37:12;7;5;
37775;PMS5003;23614;33.774;130.514;2022-09-21T07:39:38;6;4;
37775;PMS5003;23614;33.774;130.514;2022-09-21T07:42:04;9;5;
37775;PMS5003;23614;33.774;130.514;2022-09-21T07:44:55;5;4;
37775;PMS5003;23614;33.774;130.514;2022-09-21T07:46:56;4;3;
37775;PMS5003;23614;33.774;130.514;2022-09-21T07:49:23;4;4;
37775;PMS5003;23614;33.774;130.514;2022-09-21T07:51:48;6;6;
37775;PMS5003;23614;33.774;130.514;2022-09-21T07:54:14;7;4;
37775;PMS5003;23614;33.774;130.514;2022-09-21T07:56:40;6;5;
37775;PMS5003;23614;33.774;130.514;2022-09-21T07:59:06;7;6;
37775;PMS5003;23614;33.774;130.514;2022-09-21T08:01:32;6;6;
37775;PMS5003;23614;33.774;130.514;2022-09-21T08:03:57;6;5;
37775;PMS5003;23614;33.774;130.514;2022-09-21T08:06:24;5;4;
37775;PMS5003;23614;33.774;130.514;2022-09-21T08:08:49;6;5;
37775;PMS5003;23614;33.774;130.514;2022-09-21T08:11:16;5;4;
37775;PMS5003;23614;33.774;130.514;2022-09-21T08:13:41;12;10;
37775;PMS5003;23614;33.774;130.514;2022-09-21T08:16:07;5;5;
37775;PMS5003;23614;33.774;130.514;2022-09-21T08:18:35;5;5;
37775;PMS5003;23614;33.774;130.514;2022-09-21T08:20:59;5;4;
37775;PMS5003;23614;33.774;130.514;2022-09-21T08:23:26;4;4;
37775;PMS5003;23614;33.774;130.514;2022-09-21T08:25:52;3;3;
37775;PMS5003;23614;33.774;130.514;2022-09-21T08:28:17;5;5;
37775;PMS5003;23614;33.774;130.514;2022-09-21T08:30:43;3;3;
37775;PMS5003;23614;33.774;130.514;2022-09-21T08:33:09;5;3;
37775;PMS5003;23614;33.774;130.514;2022-09-21T08:35:36;5;3;
37775;PMS5003;23614;33.774;130.514;2022-09-21T08:38:02;4;4;
37775;PMS5003;23614;33.774;130.514;2022-09-21T08:40:27;8;5;
37775;PMS5003;23614;33.774;130.514;2022-09-21T08:43:26;5;4;
37775;PMS5003;23614;33.774;130.514;2022-09-21T08:45:19;4;3;
37775;PMS5003;23614;33.774;130.514;2022-09-21T08:47:45;3;2;
37775;PMS5003;23614;33.774;130.514;2022-09-21T08:50:45;3;3;
37775;PMS5003;23614;33.774;130.514;2022-09-21T08:52:37;3;3;
37775;PMS5003;23614;33.774;130.514;2022-09-21T08:55:05;4;3;
37775;PMS5003;23614;33.774;130.514;2022-09-21T08:57:29;3;2;
37775;PMS5003;23614;33.774;130.514;2022-09-21T08:59:55;5;4;
37775;PMS5003;23614;33.774;130.514;2022-09-21T09:02:30;3;3;
37775;PMS5003;23614;33.774;130.514;2022-09-21T09:04:51;3;3;
37775;PMS5003;23614;33.774;130.514;2022-09-21T09:07:17;2;2;
37775;PMS5003;23614;33.774;130.514;2022-09-21T09:09:41;4;2;
37775;PMS5003;23614;33.774;130.514;2022-09-21T09:12:10;3;3;
37775;PMS5003;23614;33.774;130.514;2022-09-21T09:14:37;2;2;
37775;PMS5003;23614;33.774;130.514;2022-09-21T09:17:01;4;4;
37775;PMS5003;23614;33.774;130.514;2022-09-21T09:19:25;6;4;
37775;PMS5003;23614;33.774;130.514;2022-09-21T09:21:49;2;2;
37775;PMS5003;23614;33.774;130.514;2022-09-21T09:24:17;3;3;
37775;PMS5003;23614;33.774;130.514;2022-09-21T09:26:43;3;2;
37775;PMS5003;23614;33.774;130.514;2022-09-21T09:29:10;3;3;
37775;PMS5003;23614;33.774;130.514;2022-09-21T09:31:34;5;5;
37775;PMS5003;23614;33.774;130.514;2022-09-21T09:34:00;3;3;
37775;PMS5003;23614;33.774;130.514;2022-09-21T09:36:26;4;3;
37775;PMS5003;23614;33.774;130.514;2022-09-21T09:39:27;4;4;
37775;PMS5003;23614;33.774;130.514;2022-09-21T09:43:45;4;4;
37775;PMS5003;23614;33.774;130.514;2022-09-21T09:46:10;3;3;
37775;PMS5003;23614;33.774;130.514;2022-09-21T09:48:39;4;4;
37775;PMS5003;23614;33.774;130.514;2022-09-21T09:51:01;5;4;
37775;PMS5003;23614;33.774;130.514;2022-09-21T09:53:27;3;3;
37775;PMS5003;23614;33.774;130.514;2022-09-21T09:55:54;5;3;
37775;PMS5003;23614;33.774;130.514;2022-09-21T09:58:22;3;2;
37775;PMS5003;23614;33.774;130.514;2022-09-21T10:00:45;3;3;
37775;PMS5003;23614;33.774;130.514;2022-09-21T10:03:15;3;3;
37775;PMS5003;23614;33.774;130.514;2022-09-21T10:05:37;3;3;
37775;PMS5003;23614;33.774;130.514;2022-09-21T10:08:03;4;2;
37775;PMS5003;23614;33.774;130.514;2022-09-21T10:10:31;3;2;
37775;PMS5003;23614;33.774;130.514;2022-09-21T10:12:56;2;1;
37775;PMS5003;23614;33.774;130.514;2022-09-21T10:15:23;3;2;
37775;PMS5003;23614;33.774;130.514;2022-09-21T10:17:47;3;2;
37775;PMS5003;23614;33.774;130.514;2022-09-21T10:20:16;4;3;
37775;PMS5003;23614;33.774;130.514;2022-09-21T10:22:39;5;5;
37775;PMS5003;23614;33.774;130.514;2022-09-21T10:25:13;3;3;
37775;PMS5003;23614;33.774;130.514;2022-09-21T10:27:33;4;4;
37775;PMS5003;23614;33.774;130.514;2022-09-21T10:29:58;3;2;
37775;PMS5003;23614;33.774;130.514;2022-09-21T10:32:24;1;1;
37775;PMS5003;23614;33.774;130.514;2022-09-21T10:35:22;4;3;
37775;PMS5003;23614;33.774;130.514;2022-09-21T10:37:25;5;4;
37775;PMS5003;23614;33.774;130.514;2022-09-21T10:39:45;4;4;
37775;PMS5003;23614;33.774;130.514;2022-09-21T10:42:10;4;3;
37775;PMS5003;23614;33.774;130.514;2022-09-21T10:44:52;4;4;
37775;PMS5003;23614;33.774;130.514;2022-09-21T10:47:00;2;2;
37775;PMS5003;23614;33.774;130.514;2022-09-21T10:49:26;3;3;
37775;PMS5003;23614;33.774;130.514;2022-09-21T10:51:52;4;2;
37775;PMS5003;23614;33.774;130.514;2022-09-21T10:54:19;5;3;
37775;PMS5003;23614;33.774;130.514;2022-09-21T10:56:49;4;3;
37775;PMS5003;23614;33.774;130.514;2022-09-21T10:59:10;2;2;
37775;PMS5003;23614;33.774;130.514;2022-09-21T11:01:35;4;3;
37775;PMS5003;23614;33.774;130.514;2022-09-21T11:04:02;3;3;
37775;PMS5003;23614;33.774;130.514;2022-09-21T11:06:28;4;3;
37775;PMS5003;23614;33.774;130.514;2022-09-21T11:08:54;3;3;
37775;PMS5003;23614;33.774;130.514;2022-09-21T11:11:25;5;4;
37775;PMS5003;23614;33.774;130.514;2022-09-21T11:13:46;3;3;
37775;PMS5003;23614;33.774;130.514;2022-09-21T11:16:12;3;2;
37775;PMS5003;23614;33.774;130.514;2022-09-21T11:18:39;4;3;
37775;PMS5003;23614;33.774;130.514;2022-09-21T11:21:04;4;4;
37775;PMS5003;23614;33.774;130.514;2022-09-21T11:23:35;3;3;
37775;PMS5003;23614;33.774;130.514;2022-09-21T11:25:57;6;4;
37775;PMS5003;23614;33.774;130.514;2022-09-21T11:28:32;3;2;
37775;PMS5003;23614;33.774;130.514;2022-09-21T11:31:01;4;3;
37775;PMS5003;23614;33.774;130.514;2022-09-21T11:33:17;5;4;
37775;PMS5003;23614;33.774;130.514;2022-09-21T11:35:43;3;2;
37775;PMS5003;23614;33.774;130.514;2022-09-21T11:38:08;2;2;
37775;PMS5003;23614;33.774;130.514;2022-09-21T11:40:41;3;3;
37775;PMS5003;23614;33.774;130.514;2022-09-21T11:43:00;4;3;
37775;PMS5003;23614;33.774;130.514;2022-09-21T11:45:29;2;2;
37775;PMS5003;23614;33.774;130.514;2022-09-21T11:47:54;3;3;
37775;PMS5003;23614;33.774;130.514;2022-09-21T11:50:51;4;4;
37775;PMS5003;23614;33.774;130.514;2022-09-21T11:52:45;5;3;
37775;PMS5003;23614;33.774;130.514;2022-09-21T11:55:15;3;2;
37775;PMS5003;23614;33.774;130.514;2022-09-21T11:57:34;3;3;
37775;PMS5003;23614;33.774;130.514;2022-09-21T12:00:03;4;4;
37775;PMS5003;23614;33.774;130.514;2022-09-21T12:02:31;4;3;
37775;PMS5003;23614;33.774;130.514;2022-09-21T12:04:52;2;2;
37775;PMS5003;23614;33.774;130.514;2022-09-21T12:07:21;3;3;
37775;PMS5003;23614;33.774;130.514;2022-09-21T12:09:50;3;3;
37775;PMS5003;23614;33.774;130.514;2022-09-21T12:12:10;2;2;
37775;PMS5003;23614;33.774;130.514;2022-09-21T12:14:37;2;2;
37775;PMS5003;23614;33.774;130.514;2022-09-21T12:17:03;4;3;
37775;PMS5003;23614;33.774;130.514;2022-09-21T12:19:28;2;2;
37775;PMS5003;23614;33.774;130.514;2022-09-21T12:21:54;3;3;
37775;PMS5003;23614;33.774;130.514;2022-09-21T12:24:20;2;2;
37775;PMS5003;23614;33.774;130.514;2022-09-21T12:26:46;3;3;
37775;PMS5003;23614;33.774;130.514;2022-09-21T12:29:14;2;2;
37775;PMS5003;23614;33.774;130.514;2022-09-21T12:31:38;1;1;
37775;PMS5003;23614;33.774;130.514;2022-09-21T12:34:04;2;1;
37775;PMS5003;23614;33.774;130.514;2022-09-21T12:36:30;3;3;
37775;PMS5003;23614;33.774;130.514;2022-09-21T12:40:02;2;2;
37775;PMS5003;23614;33.774;130.514;2022-09-21T12:41:23;3;3;
37775;PMS5003;23614;33.774;130.514;2022-09-21T12:43:48;3;2;
37775;PMS5003;23614;33.774;130.514;2022-09-21T12:46:14;2;2;
37775;PMS5003;23614;33.774;130.514;2022-09-21T12:48:39;1;1;
37775;PMS5003;23614;33.774;130.514;2022-09-21T12:51:10;3;2;
37775;PMS5003;23614;33.774;130.514;2022-09-21T12:53:32;3;3;
37775;PMS5003;23614;33.774;130.514;2022-09-21T12:55:59;2;2;
37775;PMS5003;23614;33.774;130.514;2022-09-21T12:58:29;4;3;
37775;PMS5003;23614;33.774;130.514;2022-09-21T13:00:53;2;2;
37775;PMS5003;23614;33.774;130.514;2022-09-21T13:03:17;2;1;
37775;PMS5003;23614;33.774;130.514;2022-09-21T13:05:44;1;1;
37775;PMS5003;23614;33.774;130.514;2022-09-21T13:08:10;3;3;
37775;PMS5003;23614;33.774;130.514;2022-09-21T13:10:37;1;1;
37775;PMS5003;23614;33.774;130.514;2022-09-21T13:13:00;2;1;
37775;PMS5003;23614;33.774;130.514;2022-09-21T13:15:28;2;2;
37775;PMS5003;23614;33.774;130.514;2022-09-21T13:17:56;2;1;
37775;PMS5003;23614;33.774;130.514;2022-09-21T13:20:18;3;3;
37775;PMS5003;23614;33.774;130.514;2022-09-21T13:22:43;3;3;
37775;PMS5003;23614;33.774;130.514;2022-09-21T13:25:18;2;1;
37775;PMS5003;23614;33.774;130.514;2022-09-21T13:30:17;3;2;
37775;PMS5003;23614;33.774;130.514;2022-09-21T13:32:27;2;1;
37775;PMS5003;23614;33.774;130.514;2022-09-21T13:34:53;2;2;
37775;PMS5003;23614;33.774;130.514;2022-09-21T13:37:24;1;1;
37775;PMS5003;23614;33.774;130.514;2022-09-21T13:39:47;2;2;
37775;PMS5003;23614;33.774;130.514;2022-09-21T13:43:02;2;1;
37775;PMS5003;23614;33.774;130.514;2022-09-21T13:44:39;2;2;
37775;PMS5003;23614;33.774;130.514;2022-09-21T13:47:03;1;1;
37775;PMS5003;23614;33.774;130.514;2022-09-21T13:49:37;0;0;
37775;PMS5003;23614;33.774;130.514;2022-09-21T13:51:56;2;2;
37775;PMS5003;23614;33.774;130.514;2022-09-21T13:54:24;0;0;
37775;PMS5003;23614;33.774;130.514;2022-09-21T13:56:56;1;0;
37775;PMS5003;23614;33.774;130.514;2022-09-21T13:59:18;2;1;
37775;PMS5003;23614;33.774;130.514;2022-09-21T14:01:39;3;1;
37775;PMS5003;23614;33.774;130.514;2022-09-21T14:04:14;1;1;
37775;PMS5003;23614;33.774;130.514;2022-09-21T14:06:32;1;1;
37775;PMS5003;23614;33.774;130.514;2022-09-21T14:08:58;3;2;
37775;PMS5003;23614;33.774;130.514;2022-09-21T14:11:31;1;1;
37775;PMS5003;23614;33.774;130.514;2022-09-21T14:13:59;2;2;
37775;PMS5003;23614;33.774;130.514;2022-09-21T14:17:34;1;1;
37775;PMS5003;23614;33.774;130.514;2022-09-21T14:18:47;1;1;
37775;PMS5003;23614;33.774;130.514;2022-09-21T14:21:12;3;2;
37775;PMS5003;23614;33.774;130.514;2022-09-21T14:23:33;0;0;
37775;PMS5003;23614;33.774;130.514;2022-09-21T14:26:00;3;2;
37775;PMS5003;23614;33.774;130.514;2022-09-21T14:28:33;2;1;
37775;PMS5003;23614;33.774;130.514;2022-09-21T14:30:53;1;1;
37775;PMS5003;23614;33.774;130.514;2022-09-21T14:33:21;2;2;
37775;PMS5003;23614;33.774;130.514;2022-09-21T14:35:43;2;1;
37775;PMS5003;23614;33.774;130.514;2022-09-21T14:38:13;2;2;
37775;PMS5003;23614;33.774;130.514;2022-09-21T14:40:35;1;1;
37775;PMS5003;23614;33.774;130.514;2022-09-21T14:43:01;4;1;
37775;PMS5003;23614;33.774;130.514;2022-09-21T14:45:40;3;2;
37775;PMS5003;23614;33.774;130.514;2022-09-21T14:48:00;1;1;
37775;PMS5003;23614;33.774;130.514;2022-09-21T14:51:25;1;1;
37775;PMS5003;23614;33.774;130.514;2022-09-21T14:52:52;0;0;
37775;PMS5003;23614;33.774;130.514;2022-09-21T14:55:15;0;0;
37775;PMS5003;23614;33.774;130.514;2022-09-21T14:57:42;2;2;
37775;PMS5003;23614;33.774;130.514;2022-09-21T15:00:10;2;2;
37775;PMS5003;23614;33.774;130.514;2022-09-21T15:02:29;2;1;
37775;PMS5003;23614;33.774;130.514;2022-09-21T15:04:57;3;2;
37775;PMS5003;23614;33.774;130.514;2022-09-21T15:07:24;2;2;
37775;PMS5003;23614;33.774;130.514;2022-09-21T15:09:52;2;1;
37775;PMS5003;23614;33.774;130.514;2022-09-21T15:12:13;3;2;
37775;PMS5003;23614;33.774;130.514;2022-09-21T15:14:54;1;1;
37775;PMS5003;23614;33.774;130.514;2022-09-21T15:17:17;3;3;
37775;PMS5003;23614;33.774;130.514;2022-09-21T15:19:34;2;2;
37775;PMS5003;23614;33.774;130.514;2022-09-21T15:22:08;2;2;
37775;PMS5003;23614;33.774;130.514;2022-09-21T15:24:23;4;3;
37775;PMS5003;23614;33.774;130.514;2022-09-21T15:26:49;0;0;
37775;PMS5003;23614;33.774;130.514;2022-09-21T15:29:18;2;2;
37775;PMS5003;23614;33.774;130.514;2022-09-21T15:31:44;4;2;
37775;PMS5003;23614;33.774;130.514;2022-09-21T15:34:22;3;3;
37775;PMS5003;23614;33.774;130.514;2022-09-21T15:36:34;1;1;
37775;PMS5003;23614;33.774;130.514;2022-09-21T15:38:58;2;2;
37775;PMS5003;23614;33.774;130.514;2022-09-21T15:41:41;2;1;
37775;PMS5003;23614;33.774;130.514;2022-09-21T15:43:49;2;2;
37775;PMS5003;23614;33.774;130.514;2022-09-21T15:46:16;3;1;
37775;PMS5003;23614;33.774;130.514;2022-09-21T15:48:41;1;1;
37775;PMS5003;23614;33.774;130.514;2022-09-21T15:51:09;2;1;
37775;PMS5003;23614;33.774;130.514;2022-09-21T15:53:34;4;1;
37775;PMS5003;23614;33.774;130.514;2022-09-21T15:56:03;1;1;
37775;PMS5003;23614;33.774;130.514;2022-09-21T15:58:29;2;2;
37775;PMS5003;23614;33.774;130.514;2022-09-21T16:00:55;2;1;
37775;PMS5003;23614;33.774;130.514;2022-09-21T16:03:18;2;2;
37775;PMS5003;23614;33.774;130.514;2022-09-21T16:05:44;0;0;
37775;PMS5003;23614;33.774;130.514;2022-09-21T16:08:18;3;2;
37775;PMS5003;23614;33.774;130.514;2022-09-21T16:10:52;1;1;
37775;PMS5003;23614;33.774;130.514;2022-09-21T16:13:30;2;2;
37775;PMS5003;23614;33.774;130.514;2022-09-21T16:15:31;1;1;